createdAt,value
2018-07-25T00:00:48.412Z,3.13
2018-07-25T00:03:17.288Z,2.93
2018-07-25T00:05:46.117Z,2.80
2018-07-25T00:08:14.960Z,2.90
2018-07-25T00:10:48.437Z,2.67
2018-07-25T00:13:17.806Z,3.17
2018-07-25T00:15:46.828Z,2.73
2018-07-25T00:18:15.960Z,3.17
2018-07-25T00:20:44.878Z,2.60
2018-07-25T00:23:13.967Z,2.50
2018-07-25T00:25:42.791Z,2.97
2018-07-25T00:28:11.632Z,2.33
2018-07-25T00:30:40.497Z,3.00
2018-07-25T00:33:09.360Z,2.98
2018-07-25T00:35:38.187Z,3.67
2018-07-25T00:38:06.999Z,3.50
2018-07-25T00:40:35.868Z,3.20
2018-07-25T00:43:04.787Z,3.33
2018-07-25T00:45:33.654Z,2.97
2018-07-25T00:48:02.738Z,2.90
2018-07-25T00:50:31.601Z,3.20
2018-07-25T00:53:00.450Z,3.50
2018-07-25T00:55:29.779Z,3.50
2018-07-25T00:57:59.160Z,3.63
2018-07-25T01:00:28.024Z,3.00
2018-07-25T01:02:56.900Z,3.23
2018-07-25T01:05:26.040Z,3.60
2018-07-25T01:07:54.915Z,3.07
2018-07-25T01:10:23.773Z,3.20
2018-07-25T01:12:52.631Z,3.17
2018-07-25T01:15:21.449Z,2.80
2018-07-25T01:17:50.272Z,3.20
2018-07-25T01:20:19.177Z,3.03
2018-07-25T01:22:48.034Z,3.50
2018-07-25T01:25:16.843Z,3.17
2018-07-25T01:27:45.670Z,3.00
2018-07-25T01:30:14.795Z,3.30
2018-07-25T01:32:43.712Z,2.80
2018-07-25T01:35:12.565Z,3.10
2018-07-25T01:37:41.777Z,3.13
2018-07-25T01:40:10.618Z,3.40
2018-07-25T01:42:39.231Z,3.70
2018-07-25T01:45:07.970Z,3.53
2018-07-25T01:47:36.820Z,3.07
2018-07-25T01:50:05.729Z,3.73
2018-07-25T01:52:34.600Z,3.00
2018-07-25T01:55:05.404Z,3.17
2018-07-25T01:57:34.319Z,3.20
2018-07-25T02:00:03.160Z,3.33
2018-07-25T02:02:31.993Z,2.90
2018-07-25T02:05:00.848Z,3.35
2018-07-25T02:07:29.717Z,3.63
2018-07-25T02:09:58.554Z,3.13
2018-07-25T02:12:27.429Z,3.17
2018-07-25T02:14:56.268Z,2.93
2018-07-25T02:17:25.109Z,2.60
2018-07-25T02:19:53.964Z,2.77
2018-07-25T02:22:22.834Z,3.07
2018-07-25T02:24:51.679Z,3.37
2018-07-25T02:27:20.563Z,3.10
2018-07-25T02:29:49.761Z,3.30
2018-07-25T02:32:18.626Z,3.60
2018-07-25T02:34:47.464Z,3.33
2018-07-25T02:37:16.300Z,3.27
2018-07-25T02:39:45.325Z,3.37
2018-07-25T02:42:14.191Z,4.10
2018-07-25T02:44:43.028Z,3.40
2018-07-25T02:47:11.899Z,3.03
2018-07-25T02:49:40.745Z,5.07
2018-07-25T02:52:09.559Z,3.37
2018-07-25T02:54:38.386Z,3.13
2018-07-25T02:57:07.309Z,3.90
2018-07-25T02:59:36.120Z,3.00
2018-07-25T03:02:04.919Z,2.70
2018-07-25T03:04:33.775Z,3.60
2018-07-25T03:07:02.647Z,3.53
2018-07-25T03:09:31.482Z,3.90
2018-07-25T03:12:00.338Z,3.17
2018-07-25T03:14:29.174Z,3.70
2018-07-25T03:16:58.068Z,3.20
2018-07-25T03:19:26.931Z,3.33
2018-07-25T03:21:55.763Z,2.77
2018-07-25T03:24:24.946Z,3.37
2018-07-25T03:26:53.872Z,3.37
2018-07-25T03:29:22.683Z,2.90
2018-07-25T03:31:51.544Z,3.10
2018-07-25T03:34:20.372Z,3.20
2018-07-25T03:36:49.230Z,3.23
2018-07-25T03:39:18.038Z,2.77
2018-07-25T03:41:46.868Z,3.77
2018-07-25T03:44:15.702Z,3.13
2018-07-25T03:46:44.542Z,2.67
2018-07-25T03:49:13.394Z,3.75
2018-07-25T03:51:42.272Z,2.93
2018-07-25T03:54:11.100Z,3.87
2018-07-25T03:56:40.255Z,3.07
2018-07-25T03:59:09.090Z,3.50
2018-07-25T04:01:37.919Z,5.40
2018-07-25T04:04:06.770Z,3.87
2018-07-25T04:06:35.650Z,3.50
2018-07-25T04:09:07.591Z,7.43
2018-07-25T04:11:36.464Z,3.53
2018-07-25T04:14:05.514Z,4.30
2018-07-25T04:16:34.357Z,4.27
2018-07-25T04:19:03.205Z,3.73
2018-07-25T04:21:32.074Z,3.97
2018-07-25T04:24:00.909Z,3.87
2018-07-25T04:26:29.773Z,5.67
2018-07-25T04:28:59.231Z,4.97
2018-07-25T04:31:28.235Z,5.00
2018-07-25T04:33:57.091Z,3.80
2018-07-25T04:36:25.932Z,4.80
2018-07-25T04:38:54.763Z,5.03
2018-07-25T04:41:23.641Z,4.07
2018-07-25T04:43:53.237Z,4.60
2018-07-25T04:46:22.261Z,5.08
2018-07-25T04:48:50.995Z,5.70
2018-07-25T04:51:19.831Z,5.13
2018-07-25T04:53:48.740Z,4.70
2018-07-25T04:56:17.592Z,6.10
2018-07-25T04:58:46.444Z,8.03
2018-07-25T05:01:15.302Z,7.23
2018-07-25T05:03:44.176Z,11.13
2018-07-25T05:06:12.992Z,8.07
2018-07-25T05:08:42.184Z,7.93
2018-07-25T05:11:11.032Z,13.80
2018-07-25T05:13:40.680Z,8.97
2018-07-25T05:16:09.808Z,12.20
2018-07-25T05:18:38.653Z,10.40
2018-07-25T05:21:07.614Z,7.53
2018-07-25T05:23:36.491Z,10.80
2018-07-25T05:26:05.439Z,8.40
2018-07-25T05:28:34.492Z,11.10
2018-07-25T05:31:03.435Z,9.93
2018-07-25T05:33:32.297Z,9.00
2018-07-25T05:36:01.173Z,8.83
2018-07-25T05:38:30.062Z,8.00
2018-07-25T05:40:58.979Z,10.77
2018-07-25T05:43:27.832Z,11.43
2018-07-25T05:45:57.474Z,11.83
2018-07-25T05:48:26.638Z,9.07
2018-07-25T05:50:55.515Z,8.17
2018-07-25T05:53:24.411Z,7.53
2018-07-25T05:55:53.351Z,9.20
2018-07-25T05:58:22.455Z,8.43
2018-07-25T06:00:52.060Z,8.07
2018-07-25T06:03:22.289Z,7.17
2018-07-25T06:05:51.293Z,9.27
2018-07-25T06:08:20.193Z,6.70
2018-07-25T06:10:51.789Z,7.27
2018-07-25T06:13:20.741Z,8.03
2018-07-25T06:15:49.625Z,9.60
2018-07-25T06:18:18.602Z,6.60
2018-07-25T06:20:48.776Z,10.20
2018-07-25T06:23:21.342Z,11.13
2018-07-25T06:25:50.056Z,12.30
2018-07-25T06:28:18.883Z,12.60
2018-07-25T06:30:48.423Z,10.77
2018-07-25T06:33:17.998Z,9.47
2018-07-25T06:35:46.919Z,8.50
2018-07-25T06:38:16.360Z,6.83
2018-07-25T06:40:45.472Z,10.60
2018-07-25T06:43:14.351Z,6.60
2018-07-25T06:45:43.179Z,7.37
2018-07-25T06:48:12.020Z,7.07
2018-07-25T06:50:40.988Z,6.30
2018-07-25T06:53:09.767Z,5.80
2018-07-25T06:55:38.795Z,6.40
2018-07-25T06:58:07.649Z,6.00
2018-07-25T07:00:36.527Z,6.30
2018-07-25T07:03:05.417Z,6.57
2018-07-25T07:05:35.049Z,4.97
2018-07-25T07:08:04.764Z,6.87
2018-07-25T07:10:33.764Z,8.93
2018-07-25T07:13:02.609Z,7.60
2018-07-25T07:15:31.472Z,8.10
2018-07-25T07:18:00.388Z,4.73
2018-07-25T07:20:29.507Z,6.35
2018-07-25T07:22:58.097Z,5.00
2018-07-25T07:25:26.849Z,4.90
2018-07-25T07:27:55.714Z,6.00
2018-07-25T07:30:24.567Z,5.40
2018-07-25T07:32:53.408Z,4.20
2018-07-25T07:35:22.244Z,5.00
2018-07-25T07:37:51.182Z,4.93
2018-07-25T07:40:19.944Z,4.10
2018-07-25T07:42:48.963Z,3.87
2018-07-25T07:45:18.329Z,5.80
2018-07-25T07:47:47.293Z,5.90
2018-07-25T07:50:16.124Z,4.00
2018-07-25T07:52:45.294Z,3.57
2018-07-25T07:55:14.145Z,5.20
2018-07-25T07:57:42.956Z,3.70
2018-07-25T08:00:11.827Z,3.43
2018-07-25T08:02:40.780Z,3.93
2018-07-25T08:05:09.655Z,4.40
2018-07-25T08:07:38.574Z,3.27
2018-07-25T08:10:07.402Z,3.23
2018-07-25T08:12:36.292Z,3.50
2018-07-25T08:15:05.670Z,3.00
2018-07-25T08:17:34.599Z,4.97
2018-07-25T08:20:03.535Z,4.50
2018-07-25T08:22:32.609Z,3.17
2018-07-25T08:25:01.516Z,3.20
2018-07-25T08:27:30.380Z,3.17
2018-07-25T08:29:59.250Z,2.50
2018-07-25T08:32:28.077Z,2.37
2018-07-25T08:34:57.093Z,3.00
2018-07-25T08:37:26.969Z,2.93
2018-07-25T08:39:55.805Z,2.80
2018-07-25T08:42:24.936Z,2.37
2018-07-25T08:44:53.850Z,2.90
2018-07-25T08:47:22.705Z,2.97
2018-07-25T08:49:51.544Z,3.43
2018-07-25T08:52:20.791Z,3.37
2018-07-25T08:54:49.637Z,2.80
2018-07-25T08:57:18.623Z,3.20
2018-07-25T08:59:47.439Z,3.33
2018-07-25T09:02:16.376Z,3.13
2018-07-25T09:04:45.215Z,3.07
2018-07-25T09:07:14.070Z,3.37
2018-07-25T09:09:42.967Z,3.33
2018-07-25T09:12:11.773Z,2.80
2018-07-25T09:14:41.068Z,2.53
2018-07-25T09:17:10.015Z,2.73
2018-07-25T09:19:38.897Z,2.97
2018-07-25T09:22:07.732Z,3.20
2018-07-25T09:24:36.576Z,2.77
2018-07-25T09:27:05.411Z,2.40
2018-07-25T09:29:34.240Z,2.23
2018-07-25T09:32:03.177Z,2.60
2018-07-25T09:34:32.038Z,2.30
2018-07-25T09:37:00.894Z,3.27
2018-07-25T09:39:29.783Z,2.10
2018-07-25T09:41:58.607Z,2.50
2018-07-25T09:44:27.437Z,2.00
2018-07-25T09:46:56.342Z,3.07
2018-07-25T09:49:25.174Z,2.13
2018-07-25T09:51:54.006Z,2.33
2018-07-25T09:54:22.825Z,2.27
2018-07-25T09:56:51.670Z,2.50
2018-07-25T09:59:20.809Z,2.27
2018-07-25T10:01:49.649Z,2.83
2018-07-25T10:04:18.599Z,2.77
2018-07-25T10:06:47.468Z,2.33
2018-07-25T10:09:16.742Z,2.50
2018-07-25T10:11:45.611Z,2.43
2018-07-25T10:14:14.447Z,2.40
2018-07-25T10:16:43.333Z,2.57
2018-07-25T10:19:12.203Z,1.97
2018-07-25T10:21:41.113Z,2.60
2018-07-25T10:24:09.975Z,2.33
2018-07-25T10:26:38.856Z,2.73
2018-07-25T10:29:07.757Z,2.80
2018-07-25T10:31:37.422Z,3.53
2018-07-25T10:34:06.368Z,2.40
2018-07-25T10:36:35.701Z,2.57
2018-07-25T10:39:07.101Z,2.70
2018-07-25T10:41:35.991Z,2.67
2018-07-25T10:44:04.912Z,2.50
2018-07-25T10:46:34.709Z,3.80
2018-07-25T10:49:03.763Z,3.20
2018-07-25T10:51:32.744Z,2.50
2018-07-25T10:54:01.645Z,3.07
2018-07-25T10:56:30.488Z,2.90
2018-07-25T10:58:59.371Z,3.00
2018-07-25T11:01:28.242Z,2.93
2018-07-25T11:03:57.113Z,3.20
2018-07-25T11:06:25.980Z,2.77
2018-07-25T11:08:54.868Z,2.77
2018-07-25T11:11:27.542Z,2.80
2018-07-25T11:13:56.933Z,2.73
2018-07-25T11:16:26.200Z,2.97
2018-07-25T11:18:55.070Z,2.90
2018-07-25T11:21:23.987Z,3.10
2018-07-25T11:23:52.868Z,2.77
2018-07-25T11:26:21.700Z,2.70
2018-07-25T11:28:50.712Z,3.07
2018-07-25T11:31:19.581Z,3.00
2018-07-25T11:33:49.008Z,2.90
2018-07-25T11:36:17.867Z,3.00
2018-07-25T11:38:46.701Z,2.80
2018-07-25T11:41:15.572Z,3.30
2018-07-25T11:43:44.438Z,2.50
2018-07-25T11:46:13.297Z,2.87
2018-07-25T11:48:42.165Z,2.83
2018-07-25T11:51:11.018Z,3.17
2018-07-25T11:53:39.839Z,3.00
2018-07-25T11:56:08.436Z,3.00
2018-07-25T11:58:37.183Z,2.67
2018-07-25T12:01:06.143Z,2.93
2018-07-25T12:03:35.066Z,2.97
2018-07-25T12:06:04.728Z,2.90
2018-07-25T12:08:33.592Z,2.90
2018-07-25T12:11:02.458Z,3.23
2018-07-25T12:13:31.251Z,2.80
2018-07-25T12:16:00.137Z,4.37
2018-07-25T12:18:28.948Z,3.27
2018-07-25T12:20:57.808Z,3.27
2018-07-25T12:23:26.660Z,2.90
2018-07-25T12:25:55.536Z,3.20
2018-07-25T12:28:24.351Z,2.83
2018-07-25T12:30:53.238Z,2.93
2018-07-25T12:33:22.073Z,3.10
2018-07-25T12:35:50.978Z,3.77
2018-07-25T12:38:19.888Z,3.23
2018-07-25T12:40:48.765Z,3.20
2018-07-25T12:43:17.659Z,2.90
2018-07-25T12:45:47.172Z,3.20
2018-07-25T12:48:16.163Z,5.12
2018-07-25T12:50:45.229Z,2.93
2018-07-25T12:53:14.376Z,3.22
2018-07-25T12:55:44.029Z,2.77
2018-07-25T12:58:13.154Z,3.00
2018-07-25T13:00:42.075Z,3.50
2018-07-25T13:03:11.147Z,3.60
2018-07-25T13:05:39.954Z,3.40
2018-07-25T13:08:09.263Z,3.27
2018-07-25T13:10:38.191Z,3.13
2018-07-25T13:13:07.550Z,2.77
2018-07-25T13:15:36.495Z,3.20
2018-07-25T13:18:05.649Z,2.97
2018-07-25T13:20:34.516Z,3.23
2018-07-25T13:25:38.630Z,2.70
2018-07-25T13:28:07.489Z,3.00
2018-07-25T13:30:36.401Z,3.30
2018-07-25T13:33:05.265Z,3.30
2018-07-25T13:35:34.534Z,3.37
2018-07-25T13:38:03.969Z,3.13
2018-07-25T13:40:32.838Z,3.02
2018-07-25T13:43:02.020Z,2.97
2018-07-25T13:45:31.190Z,3.30
2018-07-25T13:48:00.067Z,2.95
2018-07-25T13:50:28.925Z,2.80
2018-07-25T13:52:57.789Z,3.20
2018-07-25T13:55:26.724Z,2.90
2018-07-25T13:57:55.553Z,3.37
2018-07-25T14:00:28.460Z,2.95
2018-07-25T14:02:59.059Z,2.77
2018-07-25T14:05:29.302Z,3.22
2018-07-25T14:07:58.098Z,2.60
2018-07-25T14:10:26.956Z,3.25
2018-07-25T14:12:56.545Z,2.90
2018-07-25T14:15:25.409Z,2.77
2018-07-25T14:17:54.281Z,4.27
2018-07-25T14:20:23.331Z,3.73
2018-07-25T14:22:52.177Z,3.50
2018-07-25T14:25:21.089Z,3.62
2018-07-25T14:27:50.022Z,3.35
2018-07-25T14:30:19.017Z,3.13
2018-07-25T14:32:47.760Z,2.95
2018-07-25T14:35:16.597Z,3.00
2018-07-25T14:37:45.445Z,2.77
2018-07-25T14:40:14.369Z,3.17
2018-07-25T14:42:43.133Z,3.08
2018-07-25T14:45:12.309Z,3.37
2018-07-25T14:47:41.476Z,4.50
2018-07-25T14:50:10.316Z,3.40
2018-07-25T14:52:39.390Z,3.77
2018-07-25T14:55:08.591Z,3.43
2018-07-25T14:57:37.959Z,3.00
2018-07-25T15:00:08.180Z,3.22
2018-07-25T15:02:37.107Z,3.43
2018-07-25T15:05:06.373Z,2.93
2018-07-25T15:07:35.292Z,2.95
2018-07-25T15:10:05.595Z,3.17
2018-07-25T15:12:40.783Z,3.17
2018-07-25T15:15:10.646Z,3.40
2018-07-25T15:17:39.692Z,3.20
2018-07-25T15:20:09.594Z,2.83
2018-07-25T15:22:38.868Z,3.37
2018-07-25T15:25:08.020Z,3.13
2018-07-25T15:27:37.225Z,2.87
2018-07-25T15:30:07.552Z,3.20
2018-07-25T15:32:36.413Z,3.00
2018-07-25T15:35:05.495Z,3.20
2018-07-25T15:37:34.435Z,2.83
2018-07-25T15:40:03.416Z,3.00
2018-07-25T15:42:32.307Z,3.00
2018-07-25T15:45:01.697Z,4.40
2018-07-25T15:47:30.580Z,2.93
2018-07-25T15:49:59.404Z,3.00
2018-07-25T15:52:28.341Z,3.27
2018-07-25T15:54:57.253Z,2.90
2018-07-25T15:57:26.106Z,2.70
2018-07-25T15:59:54.993Z,2.80
2018-07-25T16:02:23.833Z,3.10
2018-07-25T16:04:52.699Z,2.73
2018-07-25T16:07:21.603Z,2.35
2018-07-25T16:09:50.473Z,2.73
2018-07-25T16:12:19.288Z,2.90
2018-07-25T16:14:48.441Z,2.70
2018-07-25T16:17:17.316Z,2.80
2018-07-25T16:19:46.312Z,2.60
2018-07-25T16:22:15.469Z,2.50
2018-07-25T16:24:44.307Z,2.63
2018-07-25T16:27:13.161Z,2.80
2018-07-25T16:29:42.655Z,2.70
2018-07-25T16:32:14.432Z,2.50
2018-07-25T16:34:43.356Z,2.47
2018-07-25T16:37:12.233Z,2.47
2018-07-25T16:39:41.123Z,2.97
2018-07-25T16:42:10.027Z,3.03
2018-07-25T16:44:38.866Z,2.60
2018-07-25T16:47:07.757Z,2.50
2018-07-25T16:49:36.596Z,2.40
2018-07-25T16:52:05.509Z,2.80
2018-07-25T16:54:34.383Z,2.30
2018-07-25T16:57:03.237Z,2.50
2018-07-25T16:59:32.164Z,2.53
2018-07-25T17:02:01.360Z,2.60
2018-07-25T17:04:30.236Z,2.20
2018-07-25T17:06:59.161Z,2.23
2018-07-25T17:09:28.051Z,2.73
2018-07-25T17:11:56.930Z,2.47
2018-07-25T17:14:25.827Z,2.20
2018-07-25T17:16:54.692Z,2.67
2018-07-25T17:19:23.609Z,2.50
2018-07-25T17:21:52.544Z,2.63
2018-07-25T17:24:21.507Z,2.27
2018-07-25T17:26:50.377Z,2.33
2018-07-25T17:29:19.241Z,2.10
2018-07-25T17:31:48.183Z,2.77
2018-07-25T17:34:17.415Z,2.20
2018-07-25T17:36:46.545Z,2.20
2018-07-25T17:39:15.522Z,2.17
2018-07-25T17:41:44.362Z,2.43
2018-07-25T17:44:13.272Z,2.17
2018-07-25T17:46:42.190Z,2.10
2018-07-25T17:49:10.987Z,2.13
2018-07-25T17:51:39.836Z,2.27
2018-07-25T17:54:08.884Z,2.47
2018-07-25T17:56:37.738Z,2.10
2018-07-25T17:59:06.593Z,2.10
2018-07-25T18:01:35.503Z,2.53
2018-07-25T18:04:05.023Z,2.33
2018-07-25T18:06:33.931Z,1.90
2018-07-25T18:09:02.843Z,2.07
2018-07-25T18:14:14.029Z,2.20
2018-07-25T18:16:44.133Z,2.00
2018-07-25T18:19:14.187Z,2.00
2018-07-25T18:21:43.359Z,2.23
2018-07-25T18:24:12.557Z,1.95
2018-07-25T18:26:41.584Z,1.87
2018-07-25T18:29:10.449Z,1.90
2018-07-25T18:31:39.281Z,2.00
2018-07-25T18:34:08.151Z,2.40
2018-07-25T18:36:37.052Z,2.07
2018-07-25T18:39:08.022Z,2.23
2018-07-25T18:41:37.004Z,2.10
2018-07-25T18:44:05.848Z,2.50
2018-07-25T18:46:34.807Z,2.80
2018-07-25T18:49:03.756Z,1.93
2018-07-25T18:51:32.624Z,2.03
2018-07-25T18:54:01.679Z,2.53
2018-07-25T18:56:30.783Z,2.17
2018-07-25T18:58:59.931Z,2.70
2018-07-25T19:01:28.958Z,2.60
2018-07-25T19:03:58.758Z,2.40
2018-07-25T19:06:27.594Z,2.70
2018-07-25T19:08:56.434Z,2.27
2018-07-25T19:11:25.280Z,2.50
2018-07-25T19:13:59.684Z,2.50
2018-07-25T19:16:28.540Z,2.63
2018-07-25T19:18:57.360Z,2.40
2018-07-25T19:21:26.222Z,2.03
2018-07-25T19:23:55.087Z,2.17
2018-07-25T19:26:23.991Z,2.40
2018-07-25T19:28:52.810Z,2.40
2018-07-25T19:31:21.685Z,2.40
2018-07-25T19:33:50.807Z,2.53
2018-07-25T19:36:20.052Z,2.47
2018-07-25T19:38:48.899Z,2.37
2018-07-25T19:41:17.728Z,2.20
2018-07-25T19:43:46.639Z,2.63
2018-07-25T19:46:15.469Z,2.20
2018-07-25T19:48:44.379Z,2.30
2018-07-25T19:51:13.271Z,2.30
2018-07-25T19:53:42.193Z,2.77
2018-07-25T19:56:11.037Z,2.73
2018-07-25T19:58:39.955Z,2.30
2018-07-25T20:01:08.771Z,2.50
2018-07-25T20:03:37.644Z,2.20
2018-07-25T20:06:06.971Z,2.87
2018-07-25T20:08:36.005Z,2.63
2018-07-25T20:11:05.009Z,2.27
2018-07-25T20:13:33.859Z,2.80
2018-07-25T20:16:03.000Z,3.50
2018-07-25T20:18:31.828Z,2.20
2018-07-25T20:21:00.814Z,2.90
2018-07-25T20:23:29.701Z,2.77
2018-07-25T20:25:58.541Z,3.30
2018-07-25T20:28:27.359Z,3.20
2018-07-25T20:30:56.187Z,2.83
2018-07-25T20:33:25.036Z,2.90
2018-07-25T20:35:54.191Z,2.72
2018-07-25T20:38:23.295Z,2.90
2018-07-25T20:40:52.215Z,2.90
2018-07-25T20:43:21.133Z,3.03
2018-07-25T20:45:50.021Z,2.90
2018-07-25T20:48:18.946Z,3.17
2018-07-25T20:50:47.805Z,3.37
2018-07-25T20:53:16.634Z,3.10
2018-07-25T20:55:45.496Z,3.53
2018-07-25T20:58:14.627Z,2.83
2018-07-25T21:00:43.540Z,3.03
2018-07-25T21:03:12.119Z,3.07
2018-07-25T21:05:40.865Z,3.40
2018-07-25T21:08:09.788Z,3.13
2018-07-25T21:10:38.666Z,3.60
2018-07-25T21:13:07.472Z,3.53
2018-07-25T21:15:36.309Z,3.47
2018-07-25T21:18:05.440Z,3.80
2018-07-25T21:20:36.426Z,3.50
2018-07-25T21:23:05.028Z,3.50
2018-07-25T21:25:33.767Z,3.63
2018-07-25T21:28:02.677Z,3.03
2018-07-25T21:30:31.516Z,2.93
2018-07-25T21:33:00.411Z,3.20
2018-07-25T21:35:29.284Z,3.00
2018-07-25T21:37:58.110Z,3.30
2018-07-25T21:40:26.979Z,3.40
2018-07-25T21:42:55.879Z,2.90
2018-07-25T21:45:24.811Z,3.10
2018-07-25T21:47:53.716Z,3.03
2018-07-25T21:50:22.562Z,3.20
2018-07-25T21:52:51.502Z,3.17
2018-07-25T21:55:20.435Z,2.87
2018-07-25T21:57:49.290Z,3.20
2018-07-25T22:00:18.157Z,3.40
2018-07-25T22:02:47.620Z,3.30
2018-07-25T22:05:16.454Z,3.73
2018-07-25T22:07:46.068Z,3.60
2018-07-25T22:10:14.892Z,3.80
2018-07-25T22:12:43.816Z,3.30
2018-07-25T22:15:12.668Z,5.00
2018-07-25T22:17:41.525Z,4.30
2018-07-25T22:20:12.082Z,3.37
2018-07-25T22:22:41.079Z,4.60
2018-07-25T22:25:10.601Z,3.67
2018-07-25T22:27:39.881Z,3.30
2018-07-25T22:30:09.095Z,3.90
2018-07-25T22:32:38.244Z,3.83
2018-07-25T22:35:07.124Z,3.40
2018-07-25T22:37:35.973Z,3.83
2018-07-25T22:40:05.195Z,4.20
2018-07-25T22:42:34.087Z,3.67
2018-07-25T22:45:02.927Z,3.63
2018-07-25T22:47:31.739Z,3.13
2018-07-25T22:50:00.639Z,3.30
2018-07-25T22:52:29.499Z,3.87
2018-07-25T22:54:58.404Z,3.55
2018-07-25T22:57:27.003Z,3.57
2018-07-25T22:59:55.792Z,3.63
2018-07-25T23:02:24.669Z,4.50
2018-07-25T23:04:53.491Z,4.37
2018-07-25T23:07:22.330Z,3.20
2018-07-25T23:09:51.151Z,3.07
2018-07-25T23:12:19.970Z,4.07
2018-07-25T23:14:48.825Z,3.40
2018-07-25T23:17:17.712Z,4.87
2018-07-25T23:19:46.675Z,4.57
2018-07-25T23:22:15.483Z,4.37
2018-07-25T23:24:44.422Z,3.30
2018-07-25T23:27:13.264Z,5.08
2018-07-25T23:29:42.097Z,5.47
2018-07-25T23:32:10.941Z,3.70
2018-07-25T23:34:39.830Z,4.37
2018-07-25T23:37:08.699Z,4.00
2018-07-25T23:39:37.565Z,4.00
2018-07-25T23:42:06.402Z,7.30
2018-07-25T23:44:35.215Z,4.20
2018-07-25T23:47:04.809Z,5.22
2018-07-25T23:49:33.648Z,4.37
2018-07-25T23:52:02.550Z,4.50
2018-07-25T23:54:31.362Z,4.03
2018-07-25T23:56:59.945Z,6.40
2018-07-25T23:59:28.704Z,4.83
